sensor_id;sensor_type;location;lat;lon;timestamp;P1;durP1;ratioP1;P2;durP2;ratioP2
67941;SDS011;54731;42.600;23.476;2022-09-09T00:00:25;9.55;;;5.50;;
67941;SDS011;54731;42.600;23.476;2022-09-09T00:05:28;12.25;;;5.57;;
67941;SDS011;54731;42.600;23.476;2022-09-09T00:07:59;7.97;;;5.43;;
67941;SDS011;54731;42.600;23.476;2022-09-09T00:21:36;9.93;;;5.10;;
67941;SDS011;54731;42.600;23.476;2022-09-09T00:32:41;6.57;;;4.90;;
67941;SDS011;54731;42.600;23.476;2022-09-09T00:37:43;8.53;;;4.87;;
67941;SDS011;54731;42.600;23.476;2022-09-09T00:45:56;5.78;;;4.82;;
67941;SDS011;54731;42.600;23.476;2022-09-09T00:48:27;11.50;;;5.47;;
67941;SDS011;54731;42.600;23.476;2022-09-09T01:01:55;7.35;;;5.18;;
67941;SDS011;54731;42.600;23.476;2022-09-09T01:04:29;8.70;;;5.33;;
67941;SDS011;54731;42.600;23.476;2022-09-09T01:07:07;10.43;;;5.82;;
67941;SDS011;54731;42.600;23.476;2022-09-09T01:09:57;6.93;;;5.18;;
67941;SDS011;54731;42.600;23.476;2022-09-09T01:14:50;8.82;;;4.85;;
67941;SDS011;54731;42.600;23.476;2022-09-09T01:19:50;7.60;;;4.63;;
67941;SDS011;54731;42.600;23.476;2022-09-09T01:22:35;8.07;;;5.22;;
67941;SDS011;54731;42.600;23.476;2022-09-09T01:28:27;8.57;;;4.90;;
67941;SDS011;54731;42.600;23.476;2022-09-09T01:30:53;8.43;;;5.32;;
67941;SDS011;54731;42.600;23.476;2022-09-09T01:33:20;10.05;;;4.82;;
67941;SDS011;54731;42.600;23.476;2022-09-09T01:35:49;9.30;;;5.20;;
67941;SDS011;54731;42.600;23.476;2022-09-09T01:38:22;6.38;;;4.90;;
67941;SDS011;54731;42.600;23.476;2022-09-09T01:40:49;7.22;;;5.22;;
67941;SDS011;54731;42.600;23.476;2022-09-09T01:43:17;8.80;;;5.35;;
67941;SDS011;54731;42.600;23.476;2022-09-09T01:45:44;7.03;;;4.90;;
67941;SDS011;54731;42.600;23.476;2022-09-09T01:48:14;6.70;;;5.25;;
67941;SDS011;54731;42.600;23.476;2022-09-09T01:50:39;9.52;;;5.03;;
67941;SDS011;54731;42.600;23.476;2022-09-09T01:53:05;7.53;;;4.93;;
67941;SDS011;54731;42.600;23.476;2022-09-09T01:55:40;11.10;;;5.00;;
67941;SDS011;54731;42.600;23.476;2022-09-09T02:03:40;11.50;;;6.03;;
67941;SDS011;54731;42.600;23.476;2022-09-09T02:08:47;13.48;;;5.93;;
67941;SDS011;54731;42.600;23.476;2022-09-09T02:11:16;10.10;;;5.80;;
67941;SDS011;54731;42.600;23.476;2022-09-09T02:13:45;7.32;;;5.85;;
67941;SDS011;54731;42.600;23.476;2022-09-09T02:19:19;9.30;;;5.93;;
67941;SDS011;54731;42.600;23.476;2022-09-09T02:21:50;11.40;;;6.88;;
67941;SDS011;54731;42.600;23.476;2022-09-09T02:24:18;8.98;;;6.15;;
67941;SDS011;54731;42.600;23.476;2022-09-09T02:26:44;12.98;;;6.25;;
67941;SDS011;54731;42.600;23.476;2022-09-09T02:29:22;10.88;;;5.82;;
67941;SDS011;54731;42.600;23.476;2022-09-09T02:31:58;8.07;;;6.57;;
67941;SDS011;54731;42.600;23.476;2022-09-09T02:34:28;8.68;;;5.95;;
67941;SDS011;54731;42.600;23.476;2022-09-09T02:36:56;8.15;;;5.53;;
67941;SDS011;54731;42.600;23.476;2022-09-09T02:39:24;7.80;;;5.47;;
67941;SDS011;54731;42.600;23.476;2022-09-09T02:41:49;8.27;;;5.17;;
67941;SDS011;54731;42.600;23.476;2022-09-09T02:44:15;6.67;;;5.77;;
67941;SDS011;54731;42.600;23.476;2022-09-09T02:52:15;8.20;;;5.50;;
67941;SDS011;54731;42.600;23.476;2022-09-09T02:54:45;6.90;;;4.97;;
67941;SDS011;54731;42.600;23.476;2022-09-09T02:57:12;9.13;;;5.15;;
67941;SDS011;54731;42.600;23.476;2022-09-09T02:59:38;7.57;;;5.13;;
67941;SDS011;54731;42.600;23.476;2022-09-09T03:02:04;7.80;;;5.07;;
67941;SDS011;54731;42.600;23.476;2022-09-09T03:04:30;10.48;;;5.30;;
67941;SDS011;54731;42.600;23.476;2022-09-09T03:06:56;10.47;;;5.43;;
67941;SDS011;54731;42.600;23.476;2022-09-09T03:09:23;7.63;;;5.40;;
67941;SDS011;54731;42.600;23.476;2022-09-09T03:11:48;5.87;;;4.33;;
67941;SDS011;54731;42.600;23.476;2022-09-09T03:14:15;7.18;;;4.50;;
67941;SDS011;54731;42.600;23.476;2022-09-09T03:16:40;5.93;;;4.55;;
67941;SDS011;54731;42.600;23.476;2022-09-09T03:19:07;8.90;;;5.00;;
67941;SDS011;54731;42.600;23.476;2022-09-09T03:21:33;8.20;;;5.57;;
67941;SDS011;54731;42.600;23.476;2022-09-09T03:23:59;8.70;;;6.07;;
67941;SDS011;54731;42.600;23.476;2022-09-09T03:26:24;11.83;;;6.90;;
67941;SDS011;54731;42.600;23.476;2022-09-09T03:28:50;8.07;;;6.27;;
67941;SDS011;54731;42.600;23.476;2022-09-09T03:31:16;14.00;;;6.97;;
67941;SDS011;54731;42.600;23.476;2022-09-09T03:33:44;9.30;;;6.80;;
67941;SDS011;54731;42.600;23.476;2022-09-09T03:36:10;10.70;;;6.17;;
67941;SDS011;54731;42.600;23.476;2022-09-09T03:38:36;9.57;;;6.63;;
67941;SDS011;54731;42.600;23.476;2022-09-09T03:41:02;14.30;;;6.88;;
67941;SDS011;54731;42.600;23.476;2022-09-09T03:43:27;9.40;;;6.63;;
67941;SDS011;54731;42.600;23.476;2022-09-09T03:45:54;11.20;;;6.30;;
67941;SDS011;54731;42.600;23.476;2022-09-09T03:48:23;7.63;;;6.68;;
67941;SDS011;54731;42.600;23.476;2022-09-09T03:50:51;9.40;;;6.55;;
67941;SDS011;54731;42.600;23.476;2022-09-09T03:53:18;8.47;;;6.70;;
67941;SDS011;54731;42.600;23.476;2022-09-09T03:55:52;9.77;;;6.80;;
67941;SDS011;54731;42.600;23.476;2022-09-09T03:58:19;13.57;;;6.43;;
67941;SDS011;54731;42.600;23.476;2022-09-09T04:00:53;8.68;;;6.65;;
67941;SDS011;54731;42.600;23.476;2022-09-09T04:03:23;10.45;;;7.10;;
67941;SDS011;54731;42.600;23.476;2022-09-09T04:05:50;9.13;;;6.80;;
67941;SDS011;54731;42.600;23.476;2022-09-09T04:08:18;12.85;;;6.65;;
67941;SDS011;54731;42.600;23.476;2022-09-09T04:10:45;9.70;;;6.07;;
67941;SDS011;54731;42.600;23.476;2022-09-09T04:13:12;8.98;;;6.00;;
67941;SDS011;54731;42.600;23.476;2022-09-09T04:15:39;9.75;;;7.10;;
67941;SDS011;54731;42.600;23.476;2022-09-09T04:18:05;10.27;;;7.30;;
67941;SDS011;54731;42.600;23.476;2022-09-09T04:20:31;10.85;;;8.10;;
67941;SDS011;54731;42.600;23.476;2022-09-09T04:22:57;8.87;;;7.03;;
67941;SDS011;54731;42.600;23.476;2022-09-09T04:25:23;8.60;;;7.10;;
67941;SDS011;54731;42.600;23.476;2022-09-09T04:27:52;11.90;;;7.03;;
67941;SDS011;54731;42.600;23.476;2022-09-09T04:30:22;11.70;;;7.80;;
67941;SDS011;54731;42.600;23.476;2022-09-09T04:32:48;12.73;;;8.15;;
67941;SDS011;54731;42.600;23.476;2022-09-09T04:35:14;9.45;;;7.63;;
67941;SDS011;54731;42.600;23.476;2022-09-09T04:37:40;10.52;;;7.32;;
67941;SDS011;54731;42.600;23.476;2022-09-09T04:40:06;11.40;;;7.90;;
67941;SDS011;54731;42.600;23.476;2022-09-09T04:42:35;13.73;;;6.97;;
67941;SDS011;54731;42.600;23.476;2022-09-09T04:45:01;8.90;;;7.15;;
67941;SDS011;54731;42.600;23.476;2022-09-09T04:47:27;9.95;;;7.10;;
67941;SDS011;54731;42.600;23.476;2022-09-09T04:49:52;11.27;;;7.43;;
67941;SDS011;54731;42.600;23.476;2022-09-09T04:52:19;11.60;;;7.38;;
67941;SDS011;54731;42.600;23.476;2022-09-09T04:54:45;19.23;;;7.53;;
67941;SDS011;54731;42.600;23.476;2022-09-09T04:57:11;11.60;;;7.93;;
67941;SDS011;54731;42.600;23.476;2022-09-09T04:59:36;10.43;;;7.47;;
67941;SDS011;54731;42.600;23.476;2022-09-09T05:02:02;9.27;;;7.72;;
67941;SDS011;54731;42.600;23.476;2022-09-09T05:04:28;11.00;;;7.55;;
67941;SDS011;54731;42.600;23.476;2022-09-09T05:06:54;11.37;;;7.40;;
67941;SDS011;54731;42.600;23.476;2022-09-09T05:09:20;8.38;;;7.57;;
67941;SDS011;54731;42.600;23.476;2022-09-09T05:11:46;6.90;;;5.30;;
67941;SDS011;54731;42.600;23.476;2022-09-09T05:14:12;8.02;;;4.10;;
67941;SDS011;54731;42.600;23.476;2022-09-09T05:16:37;7.40;;;4.20;;
67941;SDS011;54731;42.600;23.476;2022-09-09T05:19:03;6.00;;;4.10;;
67941;SDS011;54731;42.600;23.476;2022-09-09T05:21:28;6.50;;;4.45;;
67941;SDS011;54731;42.600;23.476;2022-09-09T05:23:55;7.70;;;6.45;;
67941;SDS011;54731;42.600;23.476;2022-09-09T05:26:22;8.25;;;6.18;;
67941;SDS011;54731;42.600;23.476;2022-09-09T05:28:49;6.90;;;4.47;;
67941;SDS011;54731;42.600;23.476;2022-09-09T05:31:15;7.13;;;4.20;;
67941;SDS011;54731;42.600;23.476;2022-09-09T05:33:42;4.53;;;3.83;;
67941;SDS011;54731;42.600;23.476;2022-09-09T05:36:09;6.65;;;3.60;;
67941;SDS011;54731;42.600;23.476;2022-09-09T05:38:38;6.20;;;4.20;;
67941;SDS011;54731;42.600;23.476;2022-09-09T05:41:04;8.23;;;4.28;;
67941;SDS011;54731;42.600;23.476;2022-09-09T05:43:30;4.38;;;3.03;;
67941;SDS011;54731;42.600;23.476;2022-09-09T05:46:04;6.13;;;3.95;;
67941;SDS011;54731;42.600;23.476;2022-09-09T05:48:34;8.90;;;5.82;;
67941;SDS011;54731;42.600;23.476;2022-09-09T05:51:04;8.40;;;5.90;;
67941;SDS011;54731;42.600;23.476;2022-09-09T05:53:32;15.25;;;6.45;;
67941;SDS011;54731;42.600;23.476;2022-09-09T05:56:06;17.50;;;7.28;;
67941;SDS011;54731;42.600;23.476;2022-09-09T05:58:35;13.13;;;7.50;;
67941;SDS011;54731;42.600;23.476;2022-09-09T06:01:11;11.02;;;7.10;;
67941;SDS011;54731;42.600;23.476;2022-09-09T06:03:40;10.43;;;7.15;;
67941;SDS011;54731;42.600;23.476;2022-09-09T06:06:07;13.57;;;7.28;;
67941;SDS011;54731;42.600;23.476;2022-09-09T06:08:35;10.35;;;7.43;;
67941;SDS011;54731;42.600;23.476;2022-09-09T06:11:06;10.05;;;8.00;;
67941;SDS011;54731;42.600;23.476;2022-09-09T06:13:33;12.90;;;8.25;;
67941;SDS011;54731;42.600;23.476;2022-09-09T06:16:00;10.52;;;7.05;;
67941;SDS011;54731;42.600;23.476;2022-09-09T06:18:26;11.10;;;7.32;;
67941;SDS011;54731;42.600;23.476;2022-09-09T06:20:55;11.63;;;8.13;;
67941;SDS011;54731;42.600;23.476;2022-09-09T06:23:29;13.57;;;7.15;;
67941;SDS011;54731;42.600;23.476;2022-09-09T06:26:09;9.75;;;7.10;;
67941;SDS011;54731;42.600;23.476;2022-09-09T06:28:37;10.50;;;7.00;;
67941;SDS011;54731;42.600;23.476;2022-09-09T06:31:07;15.75;;;7.20;;
67941;SDS011;54731;42.600;23.476;2022-09-09T06:33:35;13.25;;;6.95;;
67941;SDS011;54731;42.600;23.476;2022-09-09T06:36:04;9.63;;;7.88;;
67941;SDS011;54731;42.600;23.476;2022-09-09T06:38:30;10.57;;;7.20;;
67941;SDS011;54731;42.600;23.476;2022-09-09T06:40:59;11.98;;;6.47;;
67941;SDS011;54731;42.600;23.476;2022-09-09T06:43:25;13.47;;;6.23;;
67941;SDS011;54731;42.600;23.476;2022-09-09T06:45:59;7.85;;;6.68;;
67941;SDS011;54731;42.600;23.476;2022-09-09T06:48:26;9.95;;;6.05;;
67941;SDS011;54731;42.600;23.476;2022-09-09T06:51:12;9.88;;;6.25;;
67941;SDS011;54731;42.600;23.476;2022-09-09T06:53:43;10.55;;;6.47;;
67941;SDS011;54731;42.600;23.476;2022-09-09T06:58:35;12.43;;;6.45;;
67941;SDS011;54731;42.600;23.476;2022-09-09T07:01:09;14.13;;;6.82;;
67941;SDS011;54731;42.600;23.476;2022-09-09T07:03:37;12.52;;;6.20;;
67941;SDS011;54731;42.600;23.476;2022-09-09T07:06:04;12.80;;;6.45;;
67941;SDS011;54731;42.600;23.476;2022-09-09T07:08:31;7.70;;;5.80;;
67941;SDS011;54731;42.600;23.476;2022-09-09T07:11:03;11.87;;;7.17;;
67941;SDS011;54731;42.600;23.476;2022-09-09T07:13:33;9.35;;;6.55;;
67941;SDS011;54731;42.600;23.476;2022-09-09T07:16:10;14.07;;;6.63;;
67941;SDS011;54731;42.600;23.476;2022-09-09T07:18:37;9.75;;;6.40;;
67941;SDS011;54731;42.600;23.476;2022-09-09T07:21:04;11.27;;;5.93;;
67941;SDS011;54731;42.600;23.476;2022-09-09T07:23:31;9.20;;;5.73;;
67941;SDS011;54731;42.600;23.476;2022-09-09T07:25:57;8.45;;;6.22;;
67941;SDS011;54731;42.600;23.476;2022-09-09T07:28:24;6.95;;;5.85;;
67941;SDS011;54731;42.600;23.476;2022-09-09T07:30:58;8.70;;;5.45;;
67941;SDS011;54731;42.600;23.476;2022-09-09T07:33:27;8.65;;;5.53;;
67941;SDS011;54731;42.600;23.476;2022-09-09T07:36:01;19.17;;;5.80;;
67941;SDS011;54731;42.600;23.476;2022-09-09T07:38:29;12.90;;;6.38;;
67941;SDS011;54731;42.600;23.476;2022-09-09T07:41:02;10.18;;;6.97;;
67941;SDS011;54731;42.600;23.476;2022-09-09T07:43:28;13.25;;;6.43;;
67941;SDS011;54731;42.600;23.476;2022-09-09T07:45:57;10.17;;;5.97;;
67941;SDS011;54731;42.600;23.476;2022-09-09T07:48:23;8.55;;;5.60;;
67941;SDS011;54731;42.600;23.476;2022-09-09T07:50:49;10.32;;;5.88;;
67941;SDS011;54731;42.600;23.476;2022-09-09T07:53:15;8.55;;;5.65;;
67941;SDS011;54731;42.600;23.476;2022-09-09T07:55:40;7.40;;;5.00;;
67941;SDS011;54731;42.600;23.476;2022-09-09T07:58:06;7.97;;;4.83;;
67941;SDS011;54731;42.600;23.476;2022-09-09T08:00:31;10.10;;;5.57;;
67941;SDS011;54731;42.600;23.476;2022-09-09T08:02:58;10.18;;;5.28;;
67941;SDS011;54731;42.600;23.476;2022-09-09T08:05:24;6.88;;;4.43;;
67941;SDS011;54731;42.600;23.476;2022-09-09T08:07:50;8.13;;;5.43;;
67941;SDS011;54731;42.600;23.476;2022-09-09T08:10:15;10.30;;;5.57;;
67941;SDS011;54731;42.600;23.476;2022-09-09T08:12:41;10.95;;;6.10;;
67941;SDS011;54731;42.600;23.476;2022-09-09T08:15:06;12.20;;;5.53;;
67941;SDS011;54731;42.600;23.476;2022-09-09T08:17:32;10.73;;;6.15;;
67941;SDS011;54731;42.600;23.476;2022-09-09T08:19:57;8.17;;;5.37;;
67941;SDS011;54731;42.600;23.476;2022-09-09T08:22:30;7.22;;;5.03;;
67941;SDS011;54731;42.600;23.476;2022-09-09T08:24:56;8.73;;;5.47;;
67941;SDS011;54731;42.600;23.476;2022-09-09T08:27:21;8.15;;;5.15;;
67941;SDS011;54731;42.600;23.476;2022-09-09T08:29:47;9.30;;;5.00;;
67941;SDS011;54731;42.600;23.476;2022-09-09T08:32:13;8.23;;;5.53;;
67941;SDS011;54731;42.600;23.476;2022-09-09T08:34:38;6.87;;;6.17;;
67941;SDS011;54731;42.600;23.476;2022-09-09T08:37:03;9.30;;;5.63;;
67941;SDS011;54731;42.600;23.476;2022-09-09T08:39:29;6.73;;;5.67;;
67941;SDS011;54731;42.600;23.476;2022-09-09T08:44:36;9.32;;;5.05;;
67941;SDS011;54731;42.600;23.476;2022-09-09T08:49:57;35.90;;;15.57;;
67941;SDS011;54731;42.600;23.476;2022-09-09T08:53:38;9.32;;;6.10;;
67941;SDS011;54731;42.600;23.476;2022-09-09T08:55:48;7.65;;;5.10;;
67941;SDS011;54731;42.600;23.476;2022-09-09T08:58:21;12.63;;;6.78;;
67941;SDS011;54731;42.600;23.476;2022-09-09T09:11:39;6.70;;;5.70;;
67941;SDS011;54731;42.600;23.476;2022-09-09T09:14:11;9.00;;;5.07;;
67941;SDS011;54731;42.600;23.476;2022-09-09T09:19:28;9.35;;;5.10;;
67941;SDS011;54731;42.600;23.476;2022-09-09T09:30:13;6.20;;;5.00;;
67941;SDS011;54731;42.600;23.476;2022-09-09T09:32:48;9.45;;;5.68;;
67941;SDS011;54731;42.600;23.476;2022-09-09T09:35:18;7.95;;;5.55;;
67941;SDS011;54731;42.600;23.476;2022-09-09T09:37:44;6.83;;;4.87;;
67941;SDS011;54731;42.600;23.476;2022-09-09T09:40:10;9.68;;;5.22;;
67941;SDS011;54731;42.600;23.476;2022-09-09T09:42:46;7.80;;;5.30;;
67941;SDS011;54731;42.600;23.476;2022-09-09T09:45:35;8.18;;;5.30;;
67941;SDS011;54731;42.600;23.476;2022-09-09T09:48:09;7.40;;;5.20;;
67941;SDS011;54731;42.600;23.476;2022-09-09T09:50:45;6.95;;;5.55;;
67941;SDS011;54731;42.600;23.476;2022-09-09T09:53:21;8.63;;;5.25;;
67941;SDS011;54731;42.600;23.476;2022-09-09T09:55:52;8.38;;;5.03;;
67941;SDS011;54731;42.600;23.476;2022-09-09T09:58:22;6.97;;;5.45;;
67941;SDS011;54731;42.600;23.476;2022-09-09T10:00:50;9.87;;;5.33;;
67941;SDS011;54731;42.600;23.476;2022-09-09T10:03:21;6.95;;;5.05;;
67941;SDS011;54731;42.600;23.476;2022-09-09T10:05:47;6.05;;;5.38;;
67941;SDS011;54731;42.600;23.476;2022-09-09T10:08:14;9.57;;;5.27;;
67941;SDS011;54731;42.600;23.476;2022-09-09T10:13:31;6.75;;;4.95;;
67941;SDS011;54731;42.600;23.476;2022-09-09T10:16:18;11.05;;;5.90;;
67941;SDS011;54731;42.600;23.476;2022-09-09T10:27:15;9.43;;;5.18;;
67941;SDS011;54731;42.600;23.476;2022-09-09T10:30:47;7.50;;;4.97;;
67941;SDS011;54731;42.600;23.476;2022-09-09T10:39:04;10.27;;;5.30;;
67941;SDS011;54731;42.600;23.476;2022-09-09T10:41:42;6.95;;;5.47;;
67941;SDS011;54731;42.600;23.476;2022-09-09T10:57:43;9.20;;;5.45;;
67941;SDS011;54731;42.600;23.476;2022-09-09T11:00:20;10.33;;;5.27;;
67941;SDS011;54731;42.600;23.476;2022-09-09T11:02:53;8.15;;;5.95;;
67941;SDS011;54731;42.600;23.476;2022-09-09T11:05:24;11.38;;;5.95;;
67941;SDS011;54731;42.600;23.476;2022-09-09T11:08:05;12.27;;;5.70;;
67941;SDS011;54731;42.600;23.476;2022-09-09T11:13:37;11.83;;;6.00;;
67941;SDS011;54731;42.600;23.476;2022-09-09T11:16:10;11.80;;;5.95;;
67941;SDS011;54731;42.600;23.476;2022-09-09T11:18:44;10.00;;;5.80;;
67941;SDS011;54731;42.600;23.476;2022-09-09T11:21:23;12.27;;;5.90;;
67941;SDS011;54731;42.600;23.476;2022-09-09T11:24:03;10.23;;;5.80;;
67941;SDS011;54731;42.600;23.476;2022-09-09T11:26:46;10.43;;;5.33;;
67941;SDS011;54731;42.600;23.476;2022-09-09T11:29:51;14.82;;;5.78;;
67941;SDS011;54731;42.600;23.476;2022-09-09T11:38:02;14.85;;;6.30;;
67941;SDS011;54731;42.600;23.476;2022-09-09T11:40:44;10.90;;;5.87;;
67941;SDS011;54731;42.600;23.476;2022-09-09T11:43:12;10.30;;;6.15;;
67941;SDS011;54731;42.600;23.476;2022-09-09T11:45:40;9.65;;;5.63;;
67941;SDS011;54731;42.600;23.476;2022-09-09T11:48:22;12.93;;;5.50;;
67941;SDS011;54731;42.600;23.476;2022-09-09T11:51:07;8.30;;;6.05;;
67941;SDS011;54731;42.600;23.476;2022-09-09T11:53:46;11.53;;;6.30;;
67941;SDS011;54731;42.600;23.476;2022-09-09T11:56:29;8.73;;;5.13;;
67941;SDS011;54731;42.600;23.476;2022-09-09T11:58:58;9.50;;;5.82;;
67941;SDS011;54731;42.600;23.476;2022-09-09T12:04:14;12.82;;;6.25;;
67941;SDS011;54731;42.600;23.476;2022-09-09T12:06:46;9.33;;;5.30;;
67941;SDS011;54731;42.600;23.476;2022-09-09T12:19:39;10.10;;;5.60;;
67941;SDS011;54731;42.600;23.476;2022-09-09T12:22:07;13.90;;;5.55;;
67941;SDS011;54731;42.600;23.476;2022-09-09T12:30:24;13.13;;;5.85;;
67941;SDS011;54731;42.600;23.476;2022-09-09T12:33:08;14.10;;;6.18;;
67941;SDS011;54731;42.600;23.476;2022-09-09T12:35:37;10.60;;;5.93;;
67941;SDS011;54731;42.600;23.476;2022-09-09T12:38:03;13.02;;;5.72;;
67941;SDS011;54731;42.600;23.476;2022-09-09T12:40:33;11.77;;;5.93;;
67941;SDS011;54731;42.600;23.476;2022-09-09T12:43:00;12.73;;;6.43;;
67941;SDS011;54731;42.600;23.476;2022-09-09T12:45:28;8.85;;;6.00;;
67941;SDS011;54731;42.600;23.476;2022-09-09T12:48:00;14.10;;;6.20;;
67941;SDS011;54731;42.600;23.476;2022-09-09T12:50:31;8.73;;;5.90;;
67941;SDS011;54731;42.600;23.476;2022-09-09T12:53:10;11.77;;;6.43;;
67941;SDS011;54731;42.600;23.476;2022-09-09T12:55:48;9.18;;;5.30;;
67941;SDS011;54731;42.600;23.476;2022-09-09T12:58:21;6.28;;;5.25;;
67941;SDS011;54731;42.600;23.476;2022-09-09T13:00:50;10.83;;;5.73;;
67941;SDS011;54731;42.600;23.476;2022-09-09T13:03:18;10.05;;;5.78;;
67941;SDS011;54731;42.600;23.476;2022-09-09T13:05:48;12.10;;;6.03;;
67941;SDS011;54731;42.600;23.476;2022-09-09T13:08:15;11.18;;;6.38;;
67941;SDS011;54731;42.600;23.476;2022-09-09T13:11:00;12.50;;;5.65;;
67941;SDS011;54731;42.600;23.476;2022-09-09T13:13:30;9.80;;;5.85;;
67941;SDS011;54731;42.600;23.476;2022-09-09T13:16:04;12.63;;;6.03;;
67941;SDS011;54731;42.600;23.476;2022-09-09T13:18:36;8.52;;;5.55;;
67941;SDS011;54731;42.600;23.476;2022-09-09T13:21:05;9.40;;;5.82;;
67941;SDS011;54731;42.600;23.476;2022-09-09T13:23:32;9.10;;;5.95;;
67941;SDS011;54731;42.600;23.476;2022-09-09T13:26:01;7.45;;;5.43;;
67941;SDS011;54731;42.600;23.476;2022-09-09T13:28:29;14.10;;;6.25;;
67941;SDS011;54731;42.600;23.476;2022-09-09T13:30:57;14.10;;;6.03;;
67941;SDS011;54731;42.600;23.476;2022-09-09T13:33:30;12.75;;;6.15;;
67941;SDS011;54731;42.600;23.476;2022-09-09T13:38:28;13.27;;;5.45;;
67941;SDS011;54731;42.600;23.476;2022-09-09T13:41:08;7.07;;;5.43;;
67941;SDS011;54731;42.600;23.476;2022-09-09T13:43:45;12.25;;;6.28;;
67941;SDS011;54731;42.600;23.476;2022-09-09T13:49:00;13.57;;;5.97;;
67941;SDS011;54731;42.600;23.476;2022-09-09T13:51:35;10.75;;;5.93;;
67941;SDS011;54731;42.600;23.476;2022-09-09T13:54:04;15.05;;;5.95;;
67941;SDS011;54731;42.600;23.476;2022-09-09T13:56:34;9.10;;;5.43;;
67941;SDS011;54731;42.600;23.476;2022-09-09T13:59:00;9.30;;;6.00;;
67941;SDS011;54731;42.600;23.476;2022-09-09T14:01:27;10.27;;;5.33;;
67941;SDS011;54731;42.600;23.476;2022-09-09T14:03:53;6.97;;;5.22;;
67941;SDS011;54731;42.600;23.476;2022-09-09T14:06:18;7.50;;;5.22;;
67941;SDS011;54731;42.600;23.476;2022-09-09T14:08:46;9.43;;;5.70;;
67941;SDS011;54731;42.600;23.476;2022-09-09T14:11:12;9.70;;;5.85;;
67941;SDS011;54731;42.600;23.476;2022-09-09T14:13:38;9.37;;;6.13;;
67941;SDS011;54731;42.600;23.476;2022-09-09T14:16:04;10.00;;;6.20;;
67941;SDS011;54731;42.600;23.476;2022-09-09T14:18:29;11.10;;;5.88;;
67941;SDS011;54731;42.600;23.476;2022-09-09T14:20:55;7.27;;;5.30;;
67941;SDS011;54731;42.600;23.476;2022-09-09T14:23:22;7.90;;;6.00;;
67941;SDS011;54731;42.600;23.476;2022-09-09T14:25:47;11.53;;;5.97;;
67941;SDS011;54731;42.600;23.476;2022-09-09T14:28:14;9.05;;;5.53;;
67941;SDS011;54731;42.600;23.476;2022-09-09T14:30:40;10.63;;;5.10;;
67941;SDS011;54731;42.600;23.476;2022-09-09T14:33:07;13.52;;;6.03;;
67941;SDS011;54731;42.600;23.476;2022-09-09T14:35:34;9.95;;;5.68;;
67941;SDS011;54731;42.600;23.476;2022-09-09T14:38:01;13.27;;;5.55;;
67941;SDS011;54731;42.600;23.476;2022-09-09T14:40:27;9.23;;;5.82;;
67941;SDS011;54731;42.600;23.476;2022-09-09T14:42:53;11.65;;;5.40;;
67941;SDS011;54731;42.600;23.476;2022-09-09T14:45:19;12.83;;;5.73;;
67941;SDS011;54731;42.600;23.476;2022-09-09T14:47:46;8.63;;;4.93;;
67941;SDS011;54731;42.600;23.476;2022-09-09T14:50:12;10.67;;;4.97;;
67941;SDS011;54731;42.600;23.476;2022-09-09T14:52:38;9.38;;;5.22;;
67941;SDS011;54731;42.600;23.476;2022-09-09T14:55:04;14.50;;;4.97;;
67941;SDS011;54731;42.600;23.476;2022-09-09T14:57:30;11.85;;;5.35;;
67941;SDS011;54731;42.600;23.476;2022-09-09T14:59:56;13.57;;;5.68;;
67941;SDS011;54731;42.600;23.476;2022-09-09T15:02:21;10.30;;;4.87;;
67941;SDS011;54731;42.600;23.476;2022-09-09T15:04:47;9.13;;;4.63;;
67941;SDS011;54731;42.600;23.476;2022-09-09T15:07:14;9.60;;;5.17;;
67941;SDS011;54731;42.600;23.476;2022-09-09T15:09:41;9.82;;;5.40;;
67941;SDS011;54731;42.600;23.476;2022-09-09T15:12:07;11.18;;;5.85;;
67941;SDS011;54731;42.600;23.476;2022-09-09T15:14:32;6.67;;;4.77;;
67941;SDS011;54731;42.600;23.476;2022-09-09T15:16:58;13.83;;;5.03;;
67941;SDS011;54731;42.600;23.476;2022-09-09T15:19:23;15.90;;;5.28;;
67941;SDS011;54731;42.600;23.476;2022-09-09T15:21:49;9.27;;;4.50;;
67941;SDS011;54731;42.600;23.476;2022-09-09T15:24:14;11.13;;;4.73;;
67941;SDS011;54731;42.600;23.476;2022-09-09T15:26:41;11.32;;;4.38;;
67941;SDS011;54731;42.600;23.476;2022-09-09T15:29:06;9.23;;;4.63;;
67941;SDS011;54731;42.600;23.476;2022-09-09T15:31:33;10.32;;;4.72;;
67941;SDS011;54731;42.600;23.476;2022-09-09T15:36:37;9.05;;;4.47;;
67941;SDS011;54731;42.600;23.476;2022-09-09T15:39:08;11.25;;;5.20;;
67941;SDS011;54731;42.600;23.476;2022-09-09T15:41:37;13.50;;;5.13;;
67941;SDS011;54731;42.600;23.476;2022-09-09T15:44:04;15.52;;;4.60;;
67941;SDS011;54731;42.600;23.476;2022-09-09T15:51:34;10.20;;;5.25;;
67941;SDS011;54731;42.600;23.476;2022-09-09T15:54:00;14.23;;;6.30;;
67941;SDS011;54731;42.600;23.476;2022-09-09T15:56:27;16.15;;;7.47;;
67941;SDS011;54731;42.600;23.476;2022-09-09T15:58:56;14.95;;;7.72;;
67941;SDS011;54731;42.600;23.476;2022-09-09T16:01:22;19.45;;;7.45;;
67941;SDS011;54731;42.600;23.476;2022-09-09T16:03:48;31.85;;;17.63;;
67941;SDS011;54731;42.600;23.476;2022-09-09T16:06:18;83.60;;;47.90;;
67941;SDS011;54731;42.600;23.476;2022-09-09T16:08:49;231.98;;;129.35;;
67941;SDS011;54731;42.600;23.476;2022-09-09T16:11:17;37.42;;;23.10;;
67941;SDS011;54731;42.600;23.476;2022-09-09T16:13:45;502.20;;;389.65;;
67941;SDS011;54731;42.600;23.476;2022-09-09T16:16:12;1614.97;;;780.80;;
67941;SDS011;54731;42.600;23.476;2022-09-09T16:21:38;615.63;;;352.75;;
67941;SDS011;54731;42.600;23.476;2022-09-09T16:24:07;164.55;;;103.28;;
67941;SDS011;54731;42.600;23.476;2022-09-09T16:26:35;331.90;;;231.55;;
67941;SDS011;54731;42.600;23.476;2022-09-09T16:29:02;206.63;;;130.07;;
67941;SDS011;54731;42.600;23.476;2022-09-09T16:31:28;410.60;;;220.87;;
67941;SDS011;54731;42.600;23.476;2022-09-09T16:33:55;409.60;;;271.20;;
67941;SDS011;54731;42.600;23.476;2022-09-09T16:36:22;979.70;;;538.55;;
67941;SDS011;54731;42.600;23.476;2022-09-09T16:38:53;587.63;;;397.20;;
67941;SDS011;54731;42.600;23.476;2022-09-09T16:41:24;453.25;;;322.52;;
67941;SDS011;54731;42.600;23.476;2022-09-09T16:43:56;38.15;;;23.92;;
67941;SDS011;54731;42.600;23.476;2022-09-09T16:46:24;13.45;;;5.95;;
67941;SDS011;54731;42.600;23.476;2022-09-09T16:48:52;13.38;;;5.75;;
67941;SDS011;54731;42.600;23.476;2022-09-09T16:51:24;14.13;;;5.90;;
67941;SDS011;54731;42.600;23.476;2022-09-09T16:53:52;9.82;;;6.20;;
67941;SDS011;54731;42.600;23.476;2022-09-09T16:56:19;15.50;;;5.45;;
67941;SDS011;54731;42.600;23.476;2022-09-09T16:58:50;13.65;;;5.65;;
67941;SDS011;54731;42.600;23.476;2022-09-09T17:01:20;12.68;;;6.40;;
67941;SDS011;54731;42.600;23.476;2022-09-09T17:03:46;10.97;;;5.53;;
67941;SDS011;54731;42.600;23.476;2022-09-09T17:06:13;13.38;;;6.10;;
67941;SDS011;54731;42.600;23.476;2022-09-09T17:08:40;13.83;;;6.20;;
67941;SDS011;54731;42.600;23.476;2022-09-09T17:11:14;11.73;;;5.65;;
67941;SDS011;54731;42.600;23.476;2022-09-09T17:13:44;12.65;;;5.43;;
67941;SDS011;54731;42.600;23.476;2022-09-09T17:16:12;12.75;;;5.88;;
67941;SDS011;54731;42.600;23.476;2022-09-09T17:18:39;11.27;;;5.72;;
67941;SDS011;54731;42.600;23.476;2022-09-09T17:21:09;10.45;;;5.95;;
67941;SDS011;54731;42.600;23.476;2022-09-09T17:23:38;11.43;;;5.38;;
67941;SDS011;54731;42.600;23.476;2022-09-09T17:26:08;15.77;;;6.07;;
67941;SDS011;54731;42.600;23.476;2022-09-09T17:28:36;7.50;;;5.28;;